sensor_id;sensor_type;location;lat;lon;timestamp;P1;durP1;ratioP1;P2;durP2;ratioP2
3050;SDS011;1535;51.098;6.414;2024-02-21T00:00:07;11.23;;;10.93;;
3050;SDS011;1535;51.098;6.414;2024-02-21T00:02:36;10.93;;;10.63;;
3050;SDS011;1535;51.098;6.414;2024-02-21T00:05:03;11.23;;;10.93;;
3050;SDS011;1535;51.098;6.414;2024-02-21T00:07:30;10.73;;;10.47;;
3050;SDS011;1535;51.098;6.414;2024-02-21T00:09:58;11.00;;;10.70;;
3050;SDS011;1535;51.098;6.414;2024-02-21T00:12:27;10.93;;;10.63;;
3050;SDS011;1535;51.098;6.414;2024-02-21T00:14:54;10.67;;;10.40;;
3050;SDS011;1535;51.098;6.414;2024-02-21T00:17:21;11.00;;;10.70;;
3050;SDS011;1535;51.098;6.414;2024-02-21T00:19:48;10.33;;;10.13;;
3050;SDS011;1535;51.098;6.414;2024-02-21T00:22:15;10.47;;;10.27;;
3050;SDS011;1535;51.098;6.414;2024-02-21T00:24:43;11.00;;;10.70;;
3050;SDS011;1535;51.098;6.414;2024-02-21T00:27:10;10.67;;;10.40;;
3050;SDS011;1535;51.098;6.414;2024-02-21T00:29:40;10.57;;;10.30;;
3050;SDS011;1535;51.098;6.414;2024-02-21T00:32:07;10.03;;;9.83;;
3050;SDS011;1535;51.098;6.414;2024-02-21T00:34:34;10.17;;;9.97;;
3050;SDS011;1535;51.098;6.414;2024-02-21T00:37:01;10.20;;;10.00;;
3050;SDS011;1535;51.098;6.414;2024-02-21T00:39:29;9.90;;;9.70;;
3050;SDS011;1535;51.098;6.414;2024-02-21T00:41:56;10.30;;;10.10;;
3050;SDS011;1535;51.098;6.414;2024-02-21T00:44:23;10.50;;;10.30;;
3050;SDS011;1535;51.098;6.414;2024-02-21T00:46:51;10.03;;;9.83;;
3050;SDS011;1535;51.098;6.414;2024-02-21T00:49:19;10.13;;;9.93;;
3050;SDS011;1535;51.098;6.414;2024-02-21T00:51:46;10.23;;;10.03;;
3050;SDS011;1535;51.098;6.414;2024-02-21T00:54:13;9.80;;;9.60;;
3050;SDS011;1535;51.098;6.414;2024-02-21T00:56:41;9.80;;;9.60;;
3050;SDS011;1535;51.098;6.414;2024-02-21T00:59:08;9.80;;;9.60;;
3050;SDS011;1535;51.098;6.414;2024-02-21T01:01:35;10.10;;;9.90;;
3050;SDS011;1535;51.098;6.414;2024-02-21T01:04:03;9.90;;;9.70;;
3050;SDS011;1535;51.098;6.414;2024-02-21T01:06:31;9.73;;;9.53;;
3050;SDS011;1535;51.098;6.414;2024-02-21T01:08:59;9.87;;;9.67;;
3050;SDS011;1535;51.098;6.414;2024-02-21T01:11:26;10.10;;;9.90;;
3050;SDS011;1535;51.098;6.414;2024-02-21T01:13:54;10.07;;;9.87;;
3050;SDS011;1535;51.098;6.414;2024-02-21T01:16:22;9.80;;;9.60;;
3050;SDS011;1535;51.098;6.414;2024-02-21T01:18:49;10.07;;;9.87;;
3050;SDS011;1535;51.098;6.414;2024-02-21T01:21:18;9.80;;;9.60;;
3050;SDS011;1535;51.098;6.414;2024-02-21T01:23:45;9.93;;;9.73;;
3050;SDS011;1535;51.098;6.414;2024-02-21T01:26:12;9.73;;;9.53;;
3050;SDS011;1535;51.098;6.414;2024-02-21T01:28:40;10.53;;;10.33;;
3050;SDS011;1535;51.098;6.414;2024-02-21T01:31:07;10.17;;;9.97;;
3050;SDS011;1535;51.098;6.414;2024-02-21T01:33:35;10.40;;;10.20;;
3050;SDS011;1535;51.098;6.414;2024-02-21T01:36:04;10.20;;;10.00;;
3050;SDS011;1535;51.098;6.414;2024-02-21T01:38:33;10.20;;;10.00;;
3050;SDS011;1535;51.098;6.414;2024-02-21T01:41:00;10.43;;;10.23;;
3050;SDS011;1535;51.098;6.414;2024-02-21T01:43:27;10.47;;;10.27;;
3050;SDS011;1535;51.098;6.414;2024-02-21T01:45:55;11.00;;;10.70;;
3050;SDS011;1535;51.098;6.414;2024-02-21T01:48:22;10.20;;;10.00;;
3050;SDS011;1535;51.098;6.414;2024-02-21T01:50:50;10.50;;;10.30;;
3050;SDS011;1535;51.098;6.414;2024-02-21T01:53:18;10.33;;;10.13;;
3050;SDS011;1535;51.098;6.414;2024-02-21T01:55:48;9.73;;;9.53;;
3050;SDS011;1535;51.098;6.414;2024-02-21T01:58:15;9.63;;;9.43;;
3050;SDS011;1535;51.098;6.414;2024-02-21T02:00:43;9.37;;;9.17;;
3050;SDS011;1535;51.098;6.414;2024-02-21T02:03:11;9.63;;;9.43;;
3050;SDS011;1535;51.098;6.414;2024-02-21T02:05:42;9.30;;;9.10;;
3050;SDS011;1535;51.098;6.414;2024-02-21T02:08:09;9.77;;;9.57;;
3050;SDS011;1535;51.098;6.414;2024-02-21T02:10:36;9.80;;;9.60;;
3050;SDS011;1535;51.098;6.414;2024-02-21T02:13:06;9.37;;;9.17;;
3050;SDS011;1535;51.098;6.414;2024-02-21T02:15:39;9.80;;;9.60;;
3050;SDS011;1535;51.098;6.414;2024-02-21T02:18:06;10.30;;;10.10;;
3050;SDS011;1535;51.098;6.414;2024-02-21T02:20:33;10.10;;;9.90;;
3050;SDS011;1535;51.098;6.414;2024-02-21T02:23:01;9.97;;;9.77;;
3050;SDS011;1535;51.098;6.414;2024-02-21T02:25:32;9.80;;;9.60;;
3050;SDS011;1535;51.098;6.414;2024-02-21T02:28:00;9.70;;;9.50;;
3050;SDS011;1535;51.098;6.414;2024-02-21T02:30:27;10.33;;;10.13;;
3050;SDS011;1535;51.098;6.414;2024-02-21T02:32:54;10.00;;;9.80;;
3050;SDS011;1535;51.098;6.414;2024-02-21T02:35:22;9.63;;;9.43;;
3050;SDS011;1535;51.098;6.414;2024-02-21T02:37:49;9.73;;;9.53;;
3050;SDS011;1535;51.098;6.414;2024-02-21T02:40:16;9.90;;;9.70;;
3050;SDS011;1535;51.098;6.414;2024-02-21T02:42:44;9.70;;;9.50;;
3050;SDS011;1535;51.098;6.414;2024-02-21T02:45:12;9.90;;;9.70;;
3050;SDS011;1535;51.098;6.414;2024-02-21T02:47:39;9.83;;;9.63;;
3050;SDS011;1535;51.098;6.414;2024-02-21T02:50:07;9.80;;;9.60;;
3050;SDS011;1535;51.098;6.414;2024-02-21T02:52:34;9.90;;;9.70;;
3050;SDS011;1535;51.098;6.414;2024-02-21T02:55:02;10.33;;;10.13;;
3050;SDS011;1535;51.098;6.414;2024-02-21T02:57:29;9.80;;;9.60;;
3050;SDS011;1535;51.098;6.414;2024-02-21T02:59:57;10.07;;;9.87;;
3050;SDS011;1535;51.098;6.414;2024-02-21T03:02:25;9.73;;;9.53;;
3050;SDS011;1535;51.098;6.414;2024-02-21T03:04:52;10.13;;;9.93;;
3050;SDS011;1535;51.098;6.414;2024-02-21T03:07:20;10.20;;;10.00;;
3050;SDS011;1535;51.098;6.414;2024-02-21T03:09:47;10.23;;;10.03;;
3050;SDS011;1535;51.098;6.414;2024-02-21T03:12:14;9.70;;;9.50;;
3050;SDS011;1535;51.098;6.414;2024-02-21T03:14:49;9.57;;;9.37;;
3050;SDS011;1535;51.098;6.414;2024-02-21T03:17:17;10.13;;;9.93;;
3050;SDS011;1535;51.098;6.414;2024-02-21T03:19:44;10.67;;;10.40;;
3050;SDS011;1535;51.098;6.414;2024-02-21T03:22:11;10.20;;;10.00;;
3050;SDS011;1535;51.098;6.414;2024-02-21T03:24:38;10.07;;;9.87;;
3050;SDS011;1535;51.098;6.414;2024-02-21T03:27:05;10.30;;;10.10;;
3050;SDS011;1535;51.098;6.414;2024-02-21T03:29:34;10.87;;;10.57;;
3050;SDS011;1535;51.098;6.414;2024-02-21T03:32:01;10.47;;;10.27;;
3050;SDS011;1535;51.098;6.414;2024-02-21T03:34:30;10.07;;;9.87;;
3050;SDS011;1535;51.098;6.414;2024-02-21T03:36:57;9.90;;;9.70;;
3050;SDS011;1535;51.098;6.414;2024-02-21T03:39:25;9.90;;;9.70;;
3050;SDS011;1535;51.098;6.414;2024-02-21T03:41:52;10.07;;;9.87;;
3050;SDS011;1535;51.098;6.414;2024-02-21T03:44:19;10.17;;;9.97;;
3050;SDS011;1535;51.098;6.414;2024-02-21T03:46:47;10.20;;;10.00;;
3050;SDS011;1535;51.098;6.414;2024-02-21T03:49:14;9.87;;;9.67;;
3050;SDS011;1535;51.098;6.414;2024-02-21T03:51:43;10.30;;;10.10;;
3050;SDS011;1535;51.098;6.414;2024-02-21T03:54:24;10.20;;;10.00;;
3050;SDS011;1535;51.098;6.414;2024-02-21T03:56:51;10.17;;;9.97;;
3050;SDS011;1535;51.098;6.414;2024-02-21T03:59:18;10.23;;;10.03;;
3050;SDS011;1535;51.098;6.414;2024-02-21T04:02:04;10.37;;;10.17;;
3050;SDS011;1535;51.098;6.414;2024-02-21T04:04:33;10.60;;;10.37;;
3050;SDS011;1535;51.098;6.414;2024-02-21T04:07:02;10.80;;;10.50;;
3050;SDS011;1535;51.098;6.414;2024-02-21T04:09:31;10.47;;;10.27;;
3050;SDS011;1535;51.098;6.414;2024-02-21T04:11:58;10.03;;;9.83;;
3050;SDS011;1535;51.098;6.414;2024-02-21T04:14:25;10.30;;;10.10;;
3050;SDS011;1535;51.098;6.414;2024-02-21T04:16:53;10.10;;;9.90;;
3050;SDS011;1535;51.098;6.414;2024-02-21T04:19:21;10.90;;;10.60;;
3050;SDS011;1535;51.098;6.414;2024-02-21T04:21:48;10.20;;;10.00;;
3050;SDS011;1535;51.098;6.414;2024-02-21T04:24:15;10.13;;;9.93;;
3050;SDS011;1535;51.098;6.414;2024-02-21T04:26:42;10.13;;;9.93;;
3050;SDS011;1535;51.098;6.414;2024-02-21T04:29:09;10.47;;;10.27;;
3050;SDS011;1535;51.098;6.414;2024-02-21T04:31:37;10.33;;;10.13;;
3050;SDS011;1535;51.098;6.414;2024-02-21T04:34:05;10.17;;;9.97;;
3050;SDS011;1535;51.098;6.414;2024-02-21T04:36:34;10.33;;;10.13;;
3050;SDS011;1535;51.098;6.414;2024-02-21T04:39:01;10.47;;;10.27;;
3050;SDS011;1535;51.098;6.414;2024-02-21T04:41:28;10.87;;;10.57;;
3050;SDS011;1535;51.098;6.414;2024-02-21T04:43:56;10.47;;;10.27;;
3050;SDS011;1535;51.098;6.414;2024-02-21T04:46:23;10.13;;;9.93;;
3050;SDS011;1535;51.098;6.414;2024-02-21T04:48:50;10.47;;;10.27;;
3050;SDS011;1535;51.098;6.414;2024-02-21T04:51:17;10.77;;;10.47;;
3050;SDS011;1535;51.098;6.414;2024-02-21T04:53:45;10.60;;;10.40;;
3050;SDS011;1535;51.098;6.414;2024-02-21T04:56:13;10.30;;;10.10;;
3050;SDS011;1535;51.098;6.414;2024-02-21T04:58:40;10.33;;;10.13;;
3050;SDS011;1535;51.098;6.414;2024-02-21T05:01:07;10.50;;;10.30;;
3050;SDS011;1535;51.098;6.414;2024-02-21T05:03:34;10.50;;;10.30;;
3050;SDS011;1535;51.098;6.414;2024-02-21T05:06:02;11.33;;;11.03;;
3050;SDS011;1535;51.098;6.414;2024-02-21T05:08:29;10.80;;;10.50;;
3050;SDS011;1535;51.098;6.414;2024-02-21T05:10:58;11.00;;;10.70;;
3050;SDS011;1535;51.098;6.414;2024-02-21T05:13:25;10.30;;;10.10;;
3050;SDS011;1535;51.098;6.414;2024-02-21T05:15:52;11.30;;;11.00;;
3050;SDS011;1535;51.098;6.414;2024-02-21T05:18:19;10.70;;;10.40;;
3050;SDS011;1535;51.098;6.414;2024-02-21T05:20:46;11.37;;;11.07;;
3050;SDS011;1535;51.098;6.414;2024-02-21T05:23:13;11.27;;;10.97;;
3050;SDS011;1535;51.098;6.414;2024-02-21T05:25:40;10.77;;;10.47;;
3050;SDS011;1535;51.098;6.414;2024-02-21T05:28:09;11.23;;;10.93;;
3050;SDS011;1535;51.098;6.414;2024-02-21T05:30:36;10.83;;;10.53;;
3050;SDS011;1535;51.098;6.414;2024-02-21T05:33:04;11.00;;;10.70;;
3050;SDS011;1535;51.098;6.414;2024-02-21T05:35:31;10.97;;;10.67;;
3050;SDS011;1535;51.098;6.414;2024-02-21T05:37:59;11.07;;;10.77;;
3050;SDS011;1535;51.098;6.414;2024-02-21T05:40:26;11.20;;;10.90;;
3050;SDS011;1535;51.098;6.414;2024-02-21T05:42:53;11.20;;;10.90;;
3050;SDS011;1535;51.098;6.414;2024-02-21T05:45:23;10.60;;;10.40;;
3050;SDS011;1535;51.098;6.414;2024-02-21T05:47:50;11.00;;;10.70;;
3050;SDS011;1535;51.098;6.414;2024-02-21T05:50:17;11.40;;;11.10;;
3050;SDS011;1535;51.098;6.414;2024-02-21T05:52:46;11.40;;;11.10;;
3050;SDS011;1535;51.098;6.414;2024-02-21T05:55:13;11.47;;;11.17;;
3050;SDS011;1535;51.098;6.414;2024-02-21T05:57:40;10.57;;;10.37;;
3050;SDS011;1535;51.098;6.414;2024-02-21T06:00:08;11.23;;;10.93;;
3050;SDS011;1535;51.098;6.414;2024-02-21T06:02:37;10.63;;;10.43;;
3050;SDS011;1535;51.098;6.414;2024-02-21T06:05:05;11.30;;;11.00;;
3050;SDS011;1535;51.098;6.414;2024-02-21T06:07:32;10.83;;;10.53;;
3050;SDS011;1535;51.098;6.414;2024-02-21T06:10:00;11.00;;;10.70;;
3050;SDS011;1535;51.098;6.414;2024-02-21T06:12:28;10.83;;;10.57;;
3050;SDS011;1535;51.098;6.414;2024-02-21T06:14:55;10.83;;;10.53;;
3050;SDS011;1535;51.098;6.414;2024-02-21T06:17:23;11.03;;;10.73;;
3050;SDS011;1535;51.098;6.414;2024-02-21T06:19:53;11.23;;;10.93;;
3050;SDS011;1535;51.098;6.414;2024-02-21T06:22:20;11.00;;;10.70;;
3050;SDS011;1535;51.098;6.414;2024-02-21T06:24:47;10.93;;;10.63;;
3050;SDS011;1535;51.098;6.414;2024-02-21T06:27:15;11.30;;;11.00;;
3050;SDS011;1535;51.098;6.414;2024-02-21T06:29:42;11.77;;;11.47;;
3050;SDS011;1535;51.098;6.414;2024-02-21T06:32:09;11.50;;;11.20;;
3050;SDS011;1535;51.098;6.414;2024-02-21T06:34:37;11.50;;;11.20;;
3050;SDS011;1535;51.098;6.414;2024-02-21T06:37:05;12.13;;;11.83;;
3050;SDS011;1535;51.098;6.414;2024-02-21T06:39:32;11.27;;;10.97;;
3050;SDS011;1535;51.098;6.414;2024-02-21T06:42:01;11.43;;;11.13;;
3050;SDS011;1535;51.098;6.414;2024-02-21T06:44:29;11.30;;;11.00;;
3050;SDS011;1535;51.098;6.414;2024-02-21T06:46:57;11.23;;;10.93;;
3050;SDS011;1535;51.098;6.414;2024-02-21T06:49:24;11.60;;;11.30;;
3050;SDS011;1535;51.098;6.414;2024-02-21T06:51:51;11.67;;;11.37;;
3050;SDS011;1535;51.098;6.414;2024-02-21T06:54:20;11.77;;;11.47;;
3050;SDS011;1535;51.098;6.414;2024-02-21T06:56:47;11.73;;;11.43;;
3050;SDS011;1535;51.098;6.414;2024-02-21T06:59:14;11.63;;;11.33;;
3050;SDS011;1535;51.098;6.414;2024-02-21T07:01:44;11.07;;;10.77;;
3050;SDS011;1535;51.098;6.414;2024-02-21T07:04:11;10.60;;;10.37;;
3050;SDS011;1535;51.098;6.414;2024-02-21T07:06:39;10.30;;;10.10;;
3050;SDS011;1535;51.098;6.414;2024-02-21T07:09:07;10.13;;;9.93;;
3050;SDS011;1535;51.098;6.414;2024-02-21T07:11:35;10.00;;;9.80;;
3050;SDS011;1535;51.098;6.414;2024-02-21T07:14:03;9.77;;;9.57;;
3050;SDS011;1535;51.098;6.414;2024-02-21T07:16:30;9.63;;;9.43;;
3050;SDS011;1535;51.098;6.414;2024-02-21T07:18:58;9.10;;;8.90;;
3050;SDS011;1535;51.098;6.414;2024-02-21T07:21:25;8.63;;;8.53;;
3050;SDS011;1535;51.098;6.414;2024-02-21T07:23:52;9.13;;;8.93;;
3050;SDS011;1535;51.098;6.414;2024-02-21T07:26:19;10.00;;;9.80;;
3050;SDS011;1535;51.098;6.414;2024-02-21T07:28:48;10.60;;;10.40;;
3050;SDS011;1535;51.098;6.414;2024-02-21T07:31:15;10.60;;;10.40;;
3050;SDS011;1535;51.098;6.414;2024-02-21T07:33:42;10.40;;;10.20;;
3050;SDS011;1535;51.098;6.414;2024-02-21T07:36:10;11.33;;;11.03;;
3050;SDS011;1535;51.098;6.414;2024-02-21T07:38:37;11.37;;;11.07;;
3050;SDS011;1535;51.098;6.414;2024-02-21T07:41:04;11.80;;;11.50;;
3050;SDS011;1535;51.098;6.414;2024-02-21T07:43:31;11.67;;;11.37;;
3050;SDS011;1535;51.098;6.414;2024-02-21T07:46:00;11.43;;;11.13;;
3050;SDS011;1535;51.098;6.414;2024-02-21T07:48:27;11.67;;;11.37;;
3050;SDS011;1535;51.098;6.414;2024-02-21T07:50:54;12.30;;;12.00;;
3050;SDS011;1535;51.098;6.414;2024-02-21T07:53:21;12.50;;;12.10;;
3050;SDS011;1535;51.098;6.414;2024-02-21T07:55:49;12.60;;;12.20;;
3050;SDS011;1535;51.098;6.414;2024-02-21T07:58:16;12.07;;;11.77;;
3050;SDS011;1535;51.098;6.414;2024-02-21T08:00:43;11.70;;;11.40;;
3050;SDS011;1535;51.098;6.414;2024-02-21T08:03:12;11.40;;;11.10;;
3050;SDS011;1535;51.098;6.414;2024-02-21T08:05:40;11.70;;;11.40;;
3050;SDS011;1535;51.098;6.414;2024-02-21T08:08:07;12.23;;;11.93;;
3050;SDS011;1535;51.098;6.414;2024-02-21T08:10:34;12.30;;;12.00;;
3050;SDS011;1535;51.098;6.414;2024-02-21T08:13:02;12.00;;;11.70;;
3050;SDS011;1535;51.098;6.414;2024-02-21T08:15:29;12.17;;;11.87;;
3050;SDS011;1535;51.098;6.414;2024-02-21T08:17:56;12.27;;;11.97;;
3050;SDS011;1535;51.098;6.414;2024-02-21T08:20:28;12.17;;;11.87;;
3050;SDS011;1535;51.098;6.414;2024-02-21T08:22:55;12.50;;;12.10;;
3050;SDS011;1535;51.098;6.414;2024-02-21T08:25:22;12.23;;;11.93;;
3050;SDS011;1535;51.098;6.414;2024-02-21T08:27:49;12.97;;;12.57;;
3050;SDS011;1535;51.098;6.414;2024-02-21T08:30:16;12.70;;;12.30;;
3050;SDS011;1535;51.098;6.414;2024-02-21T08:32:45;12.80;;;12.40;;
3050;SDS011;1535;51.098;6.414;2024-02-21T08:35:12;12.87;;;12.47;;
3050;SDS011;1535;51.098;6.414;2024-02-21T08:37:40;12.20;;;11.90;;
3050;SDS011;1535;51.098;6.414;2024-02-21T08:40:09;13.13;;;12.73;;
3050;SDS011;1535;51.098;6.414;2024-02-21T08:42:36;13.40;;;13.00;;
3050;SDS011;1535;51.098;6.414;2024-02-21T08:45:03;13.40;;;13.00;;
3050;SDS011;1535;51.098;6.414;2024-02-21T08:47:31;13.60;;;13.20;;
3050;SDS011;1535;51.098;6.414;2024-02-21T08:49:58;13.00;;;12.60;;
3050;SDS011;1535;51.098;6.414;2024-02-21T08:52:25;13.13;;;12.73;;
3050;SDS011;1535;51.098;6.414;2024-02-21T08:54:54;13.20;;;12.80;;
3050;SDS011;1535;51.098;6.414;2024-02-21T08:57:21;13.07;;;12.67;;
3050;SDS011;1535;51.098;6.414;2024-02-21T08:59:48;13.40;;;13.00;;
3050;SDS011;1535;51.098;6.414;2024-02-21T09:02:15;13.63;;;13.23;;
3050;SDS011;1535;51.098;6.414;2024-02-21T09:04:43;13.00;;;12.60;;
3050;SDS011;1535;51.098;6.414;2024-02-21T09:07:10;13.17;;;12.77;;
3050;SDS011;1535;51.098;6.414;2024-02-21T09:09:37;13.27;;;12.87;;
3050;SDS011;1535;51.098;6.414;2024-02-21T09:12:06;12.93;;;12.53;;
3050;SDS011;1535;51.098;6.414;2024-02-21T09:14:37;13.07;;;12.67;;
3050;SDS011;1535;51.098;6.414;2024-02-21T09:17:04;13.10;;;12.70;;
3050;SDS011;1535;51.098;6.414;2024-02-21T09:19:31;13.30;;;12.90;;
3050;SDS011;1535;51.098;6.414;2024-02-21T09:21:59;13.17;;;12.77;;
3050;SDS011;1535;51.098;6.414;2024-02-21T09:24:26;13.20;;;12.80;;
3050;SDS011;1535;51.098;6.414;2024-02-21T09:26:53;13.37;;;12.97;;
3050;SDS011;1535;51.098;6.414;2024-02-21T09:29:22;13.40;;;13.00;;
3050;SDS011;1535;51.098;6.414;2024-02-21T09:31:49;13.43;;;13.03;;
3050;SDS011;1535;51.098;6.414;2024-02-21T09:34:17;13.63;;;13.23;;
3050;SDS011;1535;51.098;6.414;2024-02-21T09:36:44;14.13;;;13.63;;
3050;SDS011;1535;51.098;6.414;2024-02-21T09:39:11;13.90;;;13.40;;
3050;SDS011;1535;51.098;6.414;2024-02-21T09:41:45;13.60;;;13.20;;
3050;SDS011;1535;51.098;6.414;2024-02-21T09:44:12;13.60;;;13.20;;
3050;SDS011;1535;51.098;6.414;2024-02-21T09:46:43;13.43;;;13.03;;
3050;SDS011;1535;51.098;6.414;2024-02-21T09:49:13;13.70;;;13.30;;
3050;SDS011;1535;51.098;6.414;2024-02-21T09:51:47;12.80;;;12.40;;
3050;SDS011;1535;51.098;6.414;2024-02-21T09:54:16;13.00;;;12.60;;
3050;SDS011;1535;51.098;6.414;2024-02-21T09:56:45;13.77;;;13.37;;
3050;SDS011;1535;51.098;6.414;2024-02-21T09:59:13;13.27;;;12.87;;
3050;SDS011;1535;51.098;6.414;2024-02-21T10:01:42;13.63;;;13.23;;
3050;SDS011;1535;51.098;6.414;2024-02-21T10:04:09;12.87;;;12.47;;
3050;SDS011;1535;51.098;6.414;2024-02-21T10:06:36;13.50;;;13.10;;
3050;SDS011;1535;51.098;6.414;2024-02-21T10:09:05;13.63;;;13.23;;
3050;SDS011;1535;51.098;6.414;2024-02-21T10:11:32;14.23;;;13.73;;
3050;SDS011;1535;51.098;6.414;2024-02-21T10:14:04;13.17;;;12.77;;
3050;SDS011;1535;51.098;6.414;2024-02-21T10:16:31;13.63;;;13.23;;
3050;SDS011;1535;51.098;6.414;2024-02-21T10:18:59;13.00;;;12.60;;
3050;SDS011;1535;51.098;6.414;2024-02-21T10:21:28;13.40;;;13.00;;
3050;SDS011;1535;51.098;6.414;2024-02-21T10:23:55;13.70;;;13.30;;
3050;SDS011;1535;51.098;6.414;2024-02-21T10:26:22;13.93;;;13.53;;
3050;SDS011;1535;51.098;6.414;2024-02-21T10:28:49;13.67;;;13.27;;
3050;SDS011;1535;51.098;6.414;2024-02-21T10:31:22;13.57;;;13.17;;
3050;SDS011;1535;51.098;6.414;2024-02-21T10:33:56;13.93;;;13.43;;
3050;SDS011;1535;51.098;6.414;2024-02-21T10:36:24;14.47;;;13.97;;
3050;SDS011;1535;51.098;6.414;2024-02-21T10:38:52;14.40;;;13.90;;
3050;SDS011;1535;51.098;6.414;2024-02-21T10:41:19;14.20;;;13.70;;
3050;SDS011;1535;51.098;6.414;2024-02-21T10:43:49;14.37;;;13.87;;
3050;SDS011;1535;51.098;6.414;2024-02-21T10:46:18;14.33;;;13.83;;
3050;SDS011;1535;51.098;6.414;2024-02-21T10:48:47;14.43;;;13.93;;
3050;SDS011;1535;51.098;6.414;2024-02-21T10:51:16;14.50;;;14.00;;
3050;SDS011;1535;51.098;6.414;2024-02-21T10:53:46;14.40;;;13.90;;
3050;SDS011;1535;51.098;6.414;2024-02-21T10:56:16;14.47;;;13.97;;
3050;SDS011;1535;51.098;6.414;2024-02-21T10:58:48;14.17;;;13.67;;
3050;SDS011;1535;51.098;6.414;2024-02-21T11:01:15;13.77;;;13.37;;
3050;SDS011;1535;51.098;6.414;2024-02-21T11:03:44;14.43;;;13.93;;
3050;SDS011;1535;51.098;6.414;2024-02-21T11:06:12;14.13;;;13.63;;
3050;SDS011;1535;51.098;6.414;2024-02-21T11:08:40;14.20;;;13.70;;
3050;SDS011;1535;51.098;6.414;2024-02-21T11:11:09;13.80;;;13.40;;
3050;SDS011;1535;51.098;6.414;2024-02-21T11:13:42;14.47;;;13.97;;
3050;SDS011;1535;51.098;6.414;2024-02-21T11:16:11;14.23;;;13.73;;
3050;SDS011;1535;51.098;6.414;2024-02-21T11:18:38;14.43;;;13.93;;
3050;SDS011;1535;51.098;6.414;2024-02-21T11:21:19;14.57;;;14.07;;
3050;SDS011;1535;51.098;6.414;2024-02-21T11:23:54;14.20;;;13.70;;
3050;SDS011;1535;51.098;6.414;2024-02-21T11:26:24;14.40;;;13.90;;
3050;SDS011;1535;51.098;6.414;2024-02-21T11:28:58;13.97;;;13.50;;
3050;SDS011;1535;51.098;6.414;2024-02-21T11:31:25;14.27;;;13.77;;
3050;SDS011;1535;51.098;6.414;2024-02-21T11:33:53;14.40;;;13.90;;
3050;SDS011;1535;51.098;6.414;2024-02-21T11:36:24;14.13;;;13.63;;
3050;SDS011;1535;51.098;6.414;2024-02-21T11:38:52;14.37;;;13.87;;
3050;SDS011;1535;51.098;6.414;2024-02-21T11:41:19;14.50;;;14.00;;
3050;SDS011;1535;51.098;6.414;2024-02-21T11:43:49;14.33;;;13.83;;
3050;SDS011;1535;51.098;6.414;2024-02-21T11:46:17;14.60;;;14.10;;
3050;SDS011;1535;51.098;6.414;2024-02-21T11:48:44;14.73;;;14.23;;
3050;SDS011;1535;51.098;6.414;2024-02-21T11:51:20;13.60;;;13.20;;
3050;SDS011;1535;51.098;6.414;2024-02-21T11:53:48;14.00;;;13.50;;
3050;SDS011;1535;51.098;6.414;2024-02-21T11:56:15;14.10;;;13.60;;
3050;SDS011;1535;51.098;6.414;2024-02-21T11:58:42;14.17;;;13.67;;
3050;SDS011;1535;51.098;6.414;2024-02-21T12:01:11;14.10;;;13.60;;
3050;SDS011;1535;51.098;6.414;2024-02-21T12:03:38;14.40;;;13.90;;
3050;SDS011;1535;51.098;6.414;2024-02-21T12:06:06;14.37;;;13.87;;
3050;SDS011;1535;51.098;6.414;2024-02-21T12:08:43;14.47;;;13.97;;
3050;SDS011;1535;51.098;6.414;2024-02-21T12:11:18;14.70;;;14.20;;
3050;SDS011;1535;51.098;6.414;2024-02-21T12:13:45;14.70;;;14.20;;
3050;SDS011;1535;51.098;6.414;2024-02-21T12:16:15;14.60;;;14.10;;
3050;SDS011;1535;51.098;6.414;2024-02-21T12:18:44;14.83;;;14.33;;
3050;SDS011;1535;51.098;6.414;2024-02-21T12:21:11;15.00;;;14.50;;
3050;SDS011;1535;51.098;6.414;2024-02-21T12:23:38;15.13;;;14.63;;
3050;SDS011;1535;51.098;6.414;2024-02-21T12:26:05;14.90;;;14.40;;
3050;SDS011;1535;51.098;6.414;2024-02-21T12:28:33;14.47;;;13.97;;
3050;SDS011;1535;51.098;6.414;2024-02-21T12:31:01;14.70;;;14.20;;
3050;SDS011;1535;51.098;6.414;2024-02-21T12:33:30;14.83;;;14.33;;
3050;SDS011;1535;51.098;6.414;2024-02-21T12:38:40;14.30;;;13.80;;
3050;SDS011;1535;51.098;6.414;2024-02-21T12:41:09;14.00;;;13.50;;
3050;SDS011;1535;51.098;6.414;2024-02-21T12:43:36;14.90;;;14.40;;
3050;SDS011;1535;51.098;6.414;2024-02-21T12:46:03;14.30;;;13.80;;
3050;SDS011;1535;51.098;6.414;2024-02-21T12:48:33;14.80;;;14.30;;
3050;SDS011;1535;51.098;6.414;2024-02-21T12:51:01;14.30;;;13.80;;
3050;SDS011;1535;51.098;6.414;2024-02-21T12:53:29;14.30;;;13.80;;
3050;SDS011;1535;51.098;6.414;2024-02-21T12:55:57;14.37;;;13.87;;
3050;SDS011;1535;51.098;6.414;2024-02-21T12:58:24;14.43;;;13.93;;
3050;SDS011;1535;51.098;6.414;2024-02-21T13:00:51;14.67;;;14.17;;
3050;SDS011;1535;51.098;6.414;2024-02-21T13:03:18;14.00;;;13.60;;
3050;SDS011;1535;51.098;6.414;2024-02-21T13:05:48;14.30;;;13.80;;
3050;SDS011;1535;51.098;6.414;2024-02-21T13:08:15;14.10;;;13.60;;
3050;SDS011;1535;51.098;6.414;2024-02-21T13:10:43;14.20;;;13.70;;
3050;SDS011;1535;51.098;6.414;2024-02-21T13:13:10;14.70;;;14.20;;
3050;SDS011;1535;51.098;6.414;2024-02-21T13:15:37;14.30;;;13.80;;
3050;SDS011;1535;51.098;6.414;2024-02-21T13:18:08;14.50;;;14.00;;
3050;SDS011;1535;51.098;6.414;2024-02-21T13:20:35;14.50;;;14.00;;
3050;SDS011;1535;51.098;6.414;2024-02-21T13:23:04;14.40;;;13.90;;
3050;SDS011;1535;51.098;6.414;2024-02-21T13:25:31;14.17;;;13.70;;
3050;SDS011;1535;51.098;6.414;2024-02-21T13:27:58;14.50;;;14.00;;
3050;SDS011;1535;51.098;6.414;2024-02-21T13:30:25;14.47;;;13.97;;
3050;SDS011;1535;51.098;6.414;2024-02-21T13:32:53;14.10;;;13.60;;
3050;SDS011;1535;51.098;6.414;2024-02-21T13:35:20;14.50;;;14.00;;
3050;SDS011;1535;51.098;6.414;2024-02-21T13:37:47;14.30;;;13.80;;
3050;SDS011;1535;51.098;6.414;2024-02-21T13:40:17;14.10;;;13.60;;
3050;SDS011;1535;51.098;6.414;2024-02-21T13:42:45;14.67;;;14.17;;
3050;SDS011;1535;51.098;6.414;2024-02-21T13:45:12;14.17;;;13.67;;
3050;SDS011;1535;51.098;6.414;2024-02-21T13:47:39;14.47;;;13.97;;
3050;SDS011;1535;51.098;6.414;2024-02-21T13:50:07;14.20;;;13.70;;
3050;SDS011;1535;51.098;6.414;2024-02-21T13:52:35;14.10;;;13.60;;
3050;SDS011;1535;51.098;6.414;2024-02-21T13:55:03;14.40;;;13.90;;
3050;SDS011;1535;51.098;6.414;2024-02-21T13:57:35;14.57;;;14.07;;
3050;SDS011;1535;51.098;6.414;2024-02-21T14:00:02;14.73;;;14.23;;
3050;SDS011;1535;51.098;6.414;2024-02-21T14:02:30;15.17;;;14.57;;
3050;SDS011;1535;51.098;6.414;2024-02-21T14:04:57;14.27;;;13.77;;
3050;SDS011;1535;51.098;6.414;2024-02-21T14:07:24;14.43;;;13.93;;
3050;SDS011;1535;51.098;6.414;2024-02-21T14:09:51;15.53;;;14.93;;
3050;SDS011;1535;51.098;6.414;2024-02-21T14:12:18;14.90;;;14.30;;
3050;SDS011;1535;51.098;6.414;2024-02-21T14:14:48;15.20;;;14.60;;
3050;SDS011;1535;51.098;6.414;2024-02-21T14:17:15;14.53;;;14.03;;
3050;SDS011;1535;51.098;6.414;2024-02-21T14:19:42;15.03;;;14.53;;
3050;SDS011;1535;51.098;6.414;2024-02-21T14:22:09;15.00;;;14.50;;
3050;SDS011;1535;51.098;6.414;2024-02-21T14:24:37;15.37;;;14.77;;
3050;SDS011;1535;51.098;6.414;2024-02-21T14:27:04;14.97;;;14.47;;
3050;SDS011;1535;51.098;6.414;2024-02-21T14:29:32;14.67;;;14.17;;
3050;SDS011;1535;51.098;6.414;2024-02-21T14:32:00;15.20;;;14.60;;
3050;SDS011;1535;51.098;6.414;2024-02-21T14:34:27;14.80;;;14.30;;
3050;SDS011;1535;51.098;6.414;2024-02-21T14:36:54;14.87;;;14.37;;
3050;SDS011;1535;51.098;6.414;2024-02-21T14:39:21;15.17;;;14.67;;
3050;SDS011;1535;51.098;6.414;2024-02-21T14:41:49;14.80;;;14.30;;
3050;SDS011;1535;51.098;6.414;2024-02-21T14:44:16;14.80;;;14.30;;
3050;SDS011;1535;51.098;6.414;2024-02-21T14:46:42;14.77;;;14.27;;
3050;SDS011;1535;51.098;6.414;2024-02-21T14:49:11;14.90;;;14.40;;
3050;SDS011;1535;51.098;6.414;2024-02-21T14:51:38;14.77;;;14.27;;
3050;SDS011;1535;51.098;6.414;2024-02-21T14:54:05;14.83;;;14.33;;
3050;SDS011;1535;51.098;6.414;2024-02-21T14:56:33;14.63;;;14.13;;
3050;SDS011;1535;51.098;6.414;2024-02-21T14:59:00;14.70;;;14.20;;